sensor_id;sensor_type;location;lat;lon;timestamp;P1;durP1;ratioP1;P2;durP2;ratioP2
44456;SDS011;30159;49.316;8.558;2023-08-30T00:01:20;7.10;;;2.37;;
44456;SDS011;30159;49.316;8.558;2023-08-30T00:03:47;1.70;;;1.60;;
44456;SDS011;30159;49.316;8.558;2023-08-30T00:06:13;2.37;;;2.07;;
44456;SDS011;30159;49.316;8.558;2023-08-30T00:08:40;1.77;;;1.67;;
44456;SDS011;30159;49.316;8.558;2023-08-30T00:11:08;2.23;;;2.03;;
44456;SDS011;30159;49.316;8.558;2023-08-30T00:13:35;2.07;;;1.97;;
44456;SDS011;30159;49.316;8.558;2023-08-30T00:16:01;1.90;;;1.80;;
44456;SDS011;30159;49.316;8.558;2023-08-30T00:18:28;3.07;;;1.83;;
44456;SDS011;30159;49.316;8.558;2023-08-30T00:20:55;2.73;;;2.53;;
44456;SDS011;30159;49.316;8.558;2023-08-30T00:23:23;2.50;;;2.27;;
44456;SDS011;30159;49.316;8.558;2023-08-30T00:25:49;2.57;;;1.90;;
44456;SDS011;30159;49.316;8.558;2023-08-30T00:28:17;1.97;;;1.87;;
44456;SDS011;30159;49.316;8.558;2023-08-30T00:30:44;3.53;;;1.97;;
44456;SDS011;30159;49.316;8.558;2023-08-30T00:33:10;4.83;;;2.20;;
44456;SDS011;30159;49.316;8.558;2023-08-30T00:35:37;2.17;;;1.83;;
44456;SDS011;30159;49.316;8.558;2023-08-30T00:38:03;1.70;;;1.60;;
44456;SDS011;30159;49.316;8.558;2023-08-30T00:40:37;2.73;;;2.53;;
44456;SDS011;30159;49.316;8.558;2023-08-30T00:43:04;1.80;;;1.70;;
44456;SDS011;30159;49.316;8.558;2023-08-30T00:45:33;2.40;;;2.20;;
44456;SDS011;30159;49.316;8.558;2023-08-30T00:48:00;2.40;;;2.13;;
44456;SDS011;30159;49.316;8.558;2023-08-30T00:50:27;2.00;;;1.90;;
44456;SDS011;30159;49.316;8.558;2023-08-30T00:52:54;2.60;;;2.40;;
44456;SDS011;30159;49.316;8.558;2023-08-30T00:55:20;3.20;;;2.40;;
44456;SDS011;30159;49.316;8.558;2023-08-30T00:57:47;2.53;;;2.33;;
44456;SDS011;30159;49.316;8.558;2023-08-30T01:00:14;2.50;;;2.30;;
44456;SDS011;30159;49.316;8.558;2023-08-30T01:02:42;2.30;;;2.10;;
44456;SDS011;30159;49.316;8.558;2023-08-30T01:05:09;3.30;;;3.00;;
44456;SDS011;30159;49.316;8.558;2023-08-30T01:07:35;2.50;;;2.30;;
44456;SDS011;30159;49.316;8.558;2023-08-30T01:10:02;1.93;;;1.83;;
44456;SDS011;30159;49.316;8.558;2023-08-30T01:12:31;3.30;;;3.00;;
44456;SDS011;30159;49.316;8.558;2023-08-30T01:15:06;2.77;;;2.53;;
44456;SDS011;30159;49.316;8.558;2023-08-30T01:17:35;2.70;;;2.50;;
44456;SDS011;30159;49.316;8.558;2023-08-30T01:20:05;3.10;;;2.27;;
44456;SDS011;30159;49.316;8.558;2023-08-30T01:22:40;3.60;;;3.30;;
44456;SDS011;30159;49.316;8.558;2023-08-30T01:25:20;2.23;;;2.10;;
44456;SDS011;30159;49.316;8.558;2023-08-30T01:27:59;2.77;;;2.57;;
44456;SDS011;30159;49.316;8.558;2023-08-30T01:30:29;2.70;;;2.30;;
44456;SDS011;30159;49.316;8.558;2023-08-30T01:32:58;3.30;;;3.00;;
44456;SDS011;30159;49.316;8.558;2023-08-30T01:35:26;2.80;;;2.60;;
44456;SDS011;30159;49.316;8.558;2023-08-30T01:37:57;3.20;;;3.00;;
44456;SDS011;30159;49.316;8.558;2023-08-30T01:40:25;3.60;;;2.97;;
44456;SDS011;30159;49.316;8.558;2023-08-30T01:42:54;3.27;;;3.07;;
44456;SDS011;30159;49.316;8.558;2023-08-30T01:45:23;4.40;;;3.97;;
44456;SDS011;30159;49.316;8.558;2023-08-30T01:47:51;3.00;;;2.80;;
44456;SDS011;30159;49.316;8.558;2023-08-30T01:50:19;3.47;;;3.17;;
44456;SDS011;30159;49.316;8.558;2023-08-30T01:52:46;2.93;;;2.07;;
44456;SDS011;30159;49.316;8.558;2023-08-30T01:55:14;3.00;;;2.70;;
44456;SDS011;30159;49.316;8.558;2023-08-30T01:57:41;3.47;;;3.27;;
44456;SDS011;30159;49.316;8.558;2023-08-30T02:00:08;3.63;;;3.00;;
44456;SDS011;30159;49.316;8.558;2023-08-30T02:02:37;2.80;;;2.60;;
44456;SDS011;30159;49.316;8.558;2023-08-30T02:05:04;3.40;;;2.60;;
44456;SDS011;30159;49.316;8.558;2023-08-30T02:07:33;4.13;;;3.73;;
44456;SDS011;30159;49.316;8.558;2023-08-30T02:10:06;3.43;;;3.10;;
44456;SDS011;30159;49.316;8.558;2023-08-30T02:12:39;3.80;;;3.50;;
44456;SDS011;30159;49.316;8.558;2023-08-30T02:15:10;3.60;;;3.30;;
44456;SDS011;30159;49.316;8.558;2023-08-30T02:17:39;3.87;;;3.47;;
44456;SDS011;30159;49.316;8.558;2023-08-30T02:20:06;3.50;;;2.93;;
44456;SDS011;30159;49.316;8.558;2023-08-30T02:22:34;3.93;;;3.53;;
44456;SDS011;30159;49.316;8.558;2023-08-30T02:25:00;3.53;;;3.23;;
44456;SDS011;30159;49.316;8.558;2023-08-30T02:27:29;3.87;;;3.53;;
44456;SDS011;30159;49.316;8.558;2023-08-30T02:29:56;3.77;;;3.47;;
44456;SDS011;30159;49.316;8.558;2023-08-30T02:32:23;3.67;;;3.37;;
44456;SDS011;30159;49.316;8.558;2023-08-30T02:34:51;3.83;;;3.53;;
44456;SDS011;30159;49.316;8.558;2023-08-30T02:37:19;3.97;;;3.67;;
44456;SDS011;30159;49.316;8.558;2023-08-30T02:39:46;4.10;;;3.80;;
44456;SDS011;30159;49.316;8.558;2023-08-30T02:42:12;2.90;;;2.70;;
44456;SDS011;30159;49.316;8.558;2023-08-30T02:44:39;3.57;;;3.27;;
44456;SDS011;30159;49.316;8.558;2023-08-30T02:47:06;4.00;;;3.60;;
44456;SDS011;30159;49.316;8.558;2023-08-30T02:49:32;4.00;;;3.60;;
44456;SDS011;30159;49.316;8.558;2023-08-30T02:52:00;3.73;;;3.17;;
44456;SDS011;30159;49.316;8.558;2023-08-30T02:54:27;4.10;;;3.63;;
44456;SDS011;30159;49.316;8.558;2023-08-30T02:56:54;3.83;;;3.17;;
44456;SDS011;30159;49.316;8.558;2023-08-30T02:59:20;3.80;;;3.50;;
44456;SDS011;30159;49.316;8.558;2023-08-30T03:01:47;3.83;;;3.50;;
44456;SDS011;30159;49.316;8.558;2023-08-30T03:04:13;3.60;;;3.30;;
44456;SDS011;30159;49.316;8.558;2023-08-30T03:06:40;3.83;;;3.53;;
44456;SDS011;30159;49.316;8.558;2023-08-30T03:09:08;2.80;;;2.60;;
44456;SDS011;30159;49.316;8.558;2023-08-30T03:11:35;4.40;;;3.57;;
44456;SDS011;30159;49.316;8.558;2023-08-30T03:14:01;3.70;;;3.27;;
44456;SDS011;30159;49.316;8.558;2023-08-30T03:16:28;4.77;;;3.50;;
44456;SDS011;30159;49.316;8.558;2023-08-30T03:18:55;3.97;;;3.67;;
44456;SDS011;30159;49.316;8.558;2023-08-30T03:21:21;3.80;;;3.50;;
44456;SDS011;30159;49.316;8.558;2023-08-30T03:23:48;4.17;;;3.73;;
44456;SDS011;30159;49.316;8.558;2023-08-30T03:26:16;3.60;;;3.30;;
44456;SDS011;30159;49.316;8.558;2023-08-30T03:28:43;4.47;;;4.07;;
44456;SDS011;30159;49.316;8.558;2023-08-30T03:31:11;3.60;;;3.30;;
44456;SDS011;30159;49.316;8.558;2023-08-30T03:33:38;4.33;;;4.03;;
44456;SDS011;30159;49.316;8.558;2023-08-30T03:36:06;4.07;;;3.77;;
44456;SDS011;30159;49.316;8.558;2023-08-30T03:38:34;4.13;;;3.73;;
44456;SDS011;30159;49.316;8.558;2023-08-30T03:41:00;3.87;;;3.50;;
44456;SDS011;30159;49.316;8.558;2023-08-30T03:43:29;4.20;;;3.80;;
44456;SDS011;30159;49.316;8.558;2023-08-30T03:45:56;3.30;;;3.00;;
44456;SDS011;30159;49.316;8.558;2023-08-30T03:48:23;4.63;;;3.67;;
44456;SDS011;30159;49.316;8.558;2023-08-30T03:50:49;11.00;;;3.77;;
44456;SDS011;30159;49.316;8.558;2023-08-30T03:53:16;3.73;;;3.53;;
44456;SDS011;30159;49.316;8.558;2023-08-30T03:55:43;3.40;;;2.73;;
44456;SDS011;30159;49.316;8.558;2023-08-30T03:58:09;4.10;;;3.33;;
44456;SDS011;30159;49.316;8.558;2023-08-30T04:00:37;6.80;;;3.33;;
44456;SDS011;30159;49.316;8.558;2023-08-30T04:05:33;3.43;;;3.23;;
44456;SDS011;30159;49.316;8.558;2023-08-30T04:08:00;6.23;;;2.97;;
44456;SDS011;30159;49.316;8.558;2023-08-30T04:10:27;4.40;;;3.67;;
44456;SDS011;30159;49.316;8.558;2023-08-30T04:12:54;3.57;;;2.73;;
44456;SDS011;30159;49.316;8.558;2023-08-30T04:15:20;4.47;;;4.07;;
44456;SDS011;30159;49.316;8.558;2023-08-30T04:17:48;4.30;;;3.83;;
44456;SDS011;30159;49.316;8.558;2023-08-30T04:20:15;3.57;;;3.27;;
44456;SDS011;30159;49.316;8.558;2023-08-30T04:22:41;3.90;;;3.60;;
44456;SDS011;30159;49.316;8.558;2023-08-30T04:25:08;3.53;;;3.03;;
44456;SDS011;30159;49.316;8.558;2023-08-30T04:27:35;3.90;;;3.60;;
44456;SDS011;30159;49.316;8.558;2023-08-30T04:30:02;3.57;;;3.20;;
44456;SDS011;30159;49.316;8.558;2023-08-30T04:32:29;4.40;;;3.73;;
44456;SDS011;30159;49.316;8.558;2023-08-30T04:34:57;3.60;;;3.40;;
44456;SDS011;30159;49.316;8.558;2023-08-30T04:37:23;6.47;;;3.27;;
44456;SDS011;30159;49.316;8.558;2023-08-30T04:39:50;3.50;;;3.30;;
44456;SDS011;30159;49.316;8.558;2023-08-30T04:42:17;4.37;;;3.93;;
44456;SDS011;30159;49.316;8.558;2023-08-30T04:44:43;4.03;;;3.53;;
44456;SDS011;30159;49.316;8.558;2023-08-30T04:47:10;3.83;;;3.50;;
44456;SDS011;30159;49.316;8.558;2023-08-30T04:49:36;5.10;;;3.50;;
44456;SDS011;30159;49.316;8.558;2023-08-30T04:52:04;4.20;;;3.60;;
44456;SDS011;30159;49.316;8.558;2023-08-30T04:54:31;4.30;;;4.00;;
44456;SDS011;30159;49.316;8.558;2023-08-30T04:56:58;6.30;;;4.57;;
44456;SDS011;30159;49.316;8.558;2023-08-30T04:59:25;4.57;;;3.40;;
44456;SDS011;30159;49.316;8.558;2023-08-30T05:01:51;4.90;;;4.23;;
44456;SDS011;30159;49.316;8.558;2023-08-30T05:04:18;4.37;;;3.77;;
44456;SDS011;30159;49.316;8.558;2023-08-30T05:06:44;3.73;;;3.53;;
44456;SDS011;30159;49.316;8.558;2023-08-30T05:09:12;4.07;;;3.60;;
44456;SDS011;30159;49.316;8.558;2023-08-30T05:11:40;3.80;;;3.27;;
44456;SDS011;30159;49.316;8.558;2023-08-30T05:14:07;3.40;;;3.20;;
44456;SDS011;30159;49.316;8.558;2023-08-30T05:16:37;3.10;;;2.80;;
44456;SDS011;30159;49.316;8.558;2023-08-30T05:19:04;4.40;;;4.00;;
44456;SDS011;30159;49.316;8.558;2023-08-30T05:21:30;3.43;;;3.13;;
44456;SDS011;30159;49.316;8.558;2023-08-30T05:23:57;3.73;;;3.43;;
44456;SDS011;30159;49.316;8.558;2023-08-30T05:26:25;3.80;;;3.50;;
44456;SDS011;30159;49.316;8.558;2023-08-30T05:28:52;3.87;;;3.57;;
44456;SDS011;30159;49.316;8.558;2023-08-30T05:31:18;4.27;;;3.87;;
44456;SDS011;30159;49.316;8.558;2023-08-30T05:33:45;3.50;;;3.20;;
44456;SDS011;30159;49.316;8.558;2023-08-30T05:36:11;3.83;;;3.50;;
44456;SDS011;30159;49.316;8.558;2023-08-30T05:38:38;3.60;;;3.33;;
44456;SDS011;30159;49.316;8.558;2023-08-30T05:41:04;4.37;;;3.10;;
44456;SDS011;30159;49.316;8.558;2023-08-30T05:43:32;5.03;;;3.20;;
44456;SDS011;30159;49.316;8.558;2023-08-30T05:45:59;4.63;;;3.83;;
44456;SDS011;30159;49.316;8.558;2023-08-30T05:48:28;3.50;;;3.20;;
44456;SDS011;30159;49.316;8.558;2023-08-30T05:50:54;3.60;;;3.30;;
44456;SDS011;30159;49.316;8.558;2023-08-30T05:53:21;3.30;;;3.10;;
44456;SDS011;30159;49.316;8.558;2023-08-30T05:55:48;3.53;;;3.10;;
44456;SDS011;30159;49.316;8.558;2023-08-30T05:58:15;3.50;;;3.30;;
44456;SDS011;30159;49.316;8.558;2023-08-30T06:00:44;5.37;;;3.53;;
44456;SDS011;30159;49.316;8.558;2023-08-30T06:03:11;4.50;;;4.10;;
44456;SDS011;30159;49.316;8.558;2023-08-30T06:05:38;3.93;;;3.63;;
44456;SDS011;30159;49.316;8.558;2023-08-30T06:08:04;5.80;;;4.40;;
44456;SDS011;30159;49.316;8.558;2023-08-30T06:10:33;3.60;;;3.03;;
44456;SDS011;30159;49.316;8.558;2023-08-30T06:12:59;4.07;;;3.77;;
44456;SDS011;30159;49.316;8.558;2023-08-30T06:15:27;3.47;;;3.27;;
44456;SDS011;30159;49.316;8.558;2023-08-30T06:17:55;3.70;;;3.40;;
44456;SDS011;30159;49.316;8.558;2023-08-30T06:20:23;3.57;;;3.27;;
44456;SDS011;30159;49.316;8.558;2023-08-30T06:22:50;3.07;;;2.87;;
44456;SDS011;30159;49.316;8.558;2023-08-30T06:25:17;4.43;;;4.03;;
44456;SDS011;30159;49.316;8.558;2023-08-30T06:27:54;4.50;;;3.37;;
44456;SDS011;30159;49.316;8.558;2023-08-30T06:30:22;4.33;;;3.13;;
44456;SDS011;30159;49.316;8.558;2023-08-30T06:32:49;4.50;;;4.10;;
44456;SDS011;30159;49.316;8.558;2023-08-30T06:35:16;4.13;;;3.53;;
44456;SDS011;30159;49.316;8.558;2023-08-30T06:37:43;7.03;;;3.53;;
44456;SDS011;30159;49.316;8.558;2023-08-30T06:40:10;4.23;;;3.93;;
44456;SDS011;30159;49.316;8.558;2023-08-30T06:42:37;4.00;;;3.30;;
44456;SDS011;30159;49.316;8.558;2023-08-30T06:45:04;4.13;;;3.83;;
44456;SDS011;30159;49.316;8.558;2023-08-30T06:47:32;4.30;;;3.80;;
44456;SDS011;30159;49.316;8.558;2023-08-30T06:49:58;3.57;;;3.27;;
44456;SDS011;30159;49.316;8.558;2023-08-30T06:52:28;6.67;;;3.90;;
44456;SDS011;30159;49.316;8.558;2023-08-30T06:54:54;4.07;;;3.77;;
44456;SDS011;30159;49.316;8.558;2023-08-30T06:57:21;3.33;;;3.13;;
44456;SDS011;30159;49.316;8.558;2023-08-30T06:59:47;3.87;;;3.50;;
44456;SDS011;30159;49.316;8.558;2023-08-30T07:02:14;9.10;;;3.10;;
44456;SDS011;30159;49.316;8.558;2023-08-30T07:04:41;3.17;;;2.97;;
44456;SDS011;30159;49.316;8.558;2023-08-30T07:07:07;4.23;;;3.20;;
44456;SDS011;30159;49.316;8.558;2023-08-30T07:09:35;3.17;;;2.87;;
44456;SDS011;30159;49.316;8.558;2023-08-30T07:12:02;3.03;;;2.83;;
44456;SDS011;30159;49.316;8.558;2023-08-30T07:14:29;3.23;;;2.93;;
44456;SDS011;30159;49.316;8.558;2023-08-30T07:16:56;2.97;;;2.77;;
44456;SDS011;30159;49.316;8.558;2023-08-30T07:19:22;3.43;;;3.13;;
44456;SDS011;30159;49.316;8.558;2023-08-30T07:21:49;2.97;;;2.70;;
44456;SDS011;30159;49.316;8.558;2023-08-30T07:24:16;2.63;;;2.43;;
44456;SDS011;30159;49.316;8.558;2023-08-30T07:26:44;4.93;;;3.60;;
44456;SDS011;30159;49.316;8.558;2023-08-30T07:29:10;2.83;;;2.63;;
44456;SDS011;30159;49.316;8.558;2023-08-30T07:31:37;3.80;;;3.50;;
44456;SDS011;30159;49.316;8.558;2023-08-30T07:34:06;5.47;;;3.07;;
44456;SDS011;30159;49.316;8.558;2023-08-30T07:36:33;3.00;;;2.80;;
44456;SDS011;30159;49.316;8.558;2023-08-30T07:38:59;2.70;;;2.50;;
44456;SDS011;30159;49.316;8.558;2023-08-30T07:41:26;3.70;;;3.00;;
44456;SDS011;30159;49.316;8.558;2023-08-30T07:43:55;2.80;;;2.60;;
44456;SDS011;30159;49.316;8.558;2023-08-30T07:46:21;3.10;;;2.90;;
44456;SDS011;30159;49.316;8.558;2023-08-30T07:48:48;2.87;;;2.67;;
44456;SDS011;30159;49.316;8.558;2023-08-30T07:51:14;3.37;;;2.10;;
44456;SDS011;30159;49.316;8.558;2023-08-30T07:53:41;2.97;;;2.77;;
44456;SDS011;30159;49.316;8.558;2023-08-30T07:56:08;4.70;;;2.67;;
44456;SDS011;30159;49.316;8.558;2023-08-30T07:58:34;2.67;;;2.47;;
44456;SDS011;30159;49.316;8.558;2023-08-30T08:01:02;2.60;;;2.40;;
44456;SDS011;30159;49.316;8.558;2023-08-30T08:03:29;2.50;;;2.30;;
44456;SDS011;30159;49.316;8.558;2023-08-30T08:05:57;3.00;;;2.50;;
44456;SDS011;30159;49.316;8.558;2023-08-30T08:08:25;2.23;;;2.10;;
44456;SDS011;30159;49.316;8.558;2023-08-30T08:10:53;2.80;;;2.60;;
44456;SDS011;30159;49.316;8.558;2023-08-30T08:13:20;3.80;;;3.53;;
44456;SDS011;30159;49.316;8.558;2023-08-30T08:15:46;2.37;;;2.17;;
44456;SDS011;30159;49.316;8.558;2023-08-30T08:18:14;2.30;;;2.20;;
44456;SDS011;30159;49.316;8.558;2023-08-30T08:20:41;2.30;;;2.10;;
44456;SDS011;30159;49.316;8.558;2023-08-30T08:23:08;3.40;;;3.20;;
44456;SDS011;30159;49.316;8.558;2023-08-30T08:25:35;3.00;;;2.40;;
44456;SDS011;30159;49.316;8.558;2023-08-30T08:28:02;3.07;;;2.37;;
44456;SDS011;30159;49.316;8.558;2023-08-30T08:30:29;2.90;;;2.70;;
44456;SDS011;30159;49.316;8.558;2023-08-30T08:32:55;3.17;;;2.53;;
44456;SDS011;30159;49.316;8.558;2023-08-30T08:35:25;2.47;;;2.27;;
44456;SDS011;30159;49.316;8.558;2023-08-30T08:37:52;2.13;;;1.97;;
44456;SDS011;30159;49.316;8.558;2023-08-30T08:40:18;3.27;;;2.97;;
44456;SDS011;30159;49.316;8.558;2023-08-30T08:42:45;3.30;;;2.70;;
44456;SDS011;30159;49.316;8.558;2023-08-30T08:45:13;2.80;;;2.60;;
44456;SDS011;30159;49.316;8.558;2023-08-30T08:47:41;3.20;;;2.73;;
44456;SDS011;30159;49.316;8.558;2023-08-30T08:50:11;2.80;;;2.60;;
44456;SDS011;30159;49.316;8.558;2023-08-30T08:52:39;2.10;;;1.83;;
44456;SDS011;30159;49.316;8.558;2023-08-30T08:55:06;2.27;;;2.07;;
44456;SDS011;30159;49.316;8.558;2023-08-30T08:57:33;2.43;;;2.23;;
44456;SDS011;30159;49.316;8.558;2023-08-30T09:00:01;3.53;;;2.40;;
44456;SDS011;30159;49.316;8.558;2023-08-30T09:02:27;2.33;;;2.13;;
44456;SDS011;30159;49.316;8.558;2023-08-30T09:05:13;2.70;;;2.50;;
44456;SDS011;30159;49.316;8.558;2023-08-30T09:07:42;2.63;;;2.43;;
44456;SDS011;30159;49.316;8.558;2023-08-30T09:10:09;2.53;;;2.37;;
44456;SDS011;30159;49.316;8.558;2023-08-30T09:12:36;2.27;;;2.10;;
44456;SDS011;30159;49.316;8.558;2023-08-30T09:15:03;3.30;;;3.10;;
44456;SDS011;30159;49.316;8.558;2023-08-30T09:17:36;2.30;;;2.10;;
44456;SDS011;30159;49.316;8.558;2023-08-30T09:20:07;2.30;;;2.10;;
44456;SDS011;30159;49.316;8.558;2023-08-30T09:22:38;2.27;;;2.07;;
44456;SDS011;30159;49.316;8.558;2023-08-30T09:25:08;2.23;;;2.13;;
44456;SDS011;30159;49.316;8.558;2023-08-30T09:27:35;2.43;;;2.23;;
44456;SDS011;30159;49.316;8.558;2023-08-30T09:30:04;3.50;;;2.20;;
44456;SDS011;30159;49.316;8.558;2023-08-30T09:32:37;2.73;;;2.17;;
44456;SDS011;30159;49.316;8.558;2023-08-30T09:35:05;10.93;;;2.07;;
44456;SDS011;30159;49.316;8.558;2023-08-30T09:37:32;2.10;;;2.00;;
44456;SDS011;30159;49.316;8.558;2023-08-30T09:39:59;2.40;;;1.93;;
44456;SDS011;30159;49.316;8.558;2023-08-30T09:42:27;2.27;;;2.07;;
44456;SDS011;30159;49.316;8.558;2023-08-30T09:44:54;2.50;;;2.40;;
44456;SDS011;30159;49.316;8.558;2023-08-30T09:47:23;2.10;;;1.90;;
44456;SDS011;30159;49.316;8.558;2023-08-30T09:49:51;2.67;;;2.47;;
44456;SDS011;30159;49.316;8.558;2023-08-30T09:52:20;2.43;;;1.90;;
44456;SDS011;30159;49.316;8.558;2023-08-30T09:54:49;1.87;;;1.77;;
44456;SDS011;30159;49.316;8.558;2023-08-30T09:57:17;2.30;;;2.10;;
44456;SDS011;30159;49.316;8.558;2023-08-30T09:59:47;2.70;;;1.93;;
44456;SDS011;30159;49.316;8.558;2023-08-30T10:02:15;2.37;;;2.03;;
44456;SDS011;30159;49.316;8.558;2023-08-30T10:04:44;2.47;;;2.27;;
44456;SDS011;30159;49.316;8.558;2023-08-30T10:07:12;1.90;;;1.80;;
44456;SDS011;30159;49.316;8.558;2023-08-30T10:09:39;1.60;;;1.50;;
44456;SDS011;30159;49.316;8.558;2023-08-30T10:12:07;1.60;;;1.50;;
44456;SDS011;30159;49.316;8.558;2023-08-30T10:14:36;1.90;;;1.80;;
44456;SDS011;30159;49.316;8.558;2023-08-30T10:17:05;2.90;;;2.70;;
44456;SDS011;30159;49.316;8.558;2023-08-30T10:19:33;1.97;;;1.87;;
44456;SDS011;30159;49.316;8.558;2023-08-30T10:22:02;2.77;;;1.80;;
44456;SDS011;30159;49.316;8.558;2023-08-30T10:24:31;1.70;;;1.60;;
44456;SDS011;30159;49.316;8.558;2023-08-30T10:27:02;2.00;;;1.90;;
44456;SDS011;30159;49.316;8.558;2023-08-30T10:29:30;1.57;;;1.47;;
44456;SDS011;30159;49.316;8.558;2023-08-30T10:32:01;1.70;;;1.60;;
44456;SDS011;30159;49.316;8.558;2023-08-30T10:34:32;2.07;;;1.90;;
44456;SDS011;30159;49.316;8.558;2023-08-30T10:37:01;2.60;;;2.03;;
44456;SDS011;30159;49.316;8.558;2023-08-30T10:39:32;2.00;;;1.90;;
44456;SDS011;30159;49.316;8.558;2023-08-30T10:42:00;2.00;;;1.90;;
44456;SDS011;30159;49.316;8.558;2023-08-30T10:44:33;2.57;;;2.37;;
44456;SDS011;30159;49.316;8.558;2023-08-30T10:47:01;3.10;;;2.00;;
44456;SDS011;30159;49.316;8.558;2023-08-30T10:49:29;2.20;;;2.10;;
44456;SDS011;30159;49.316;8.558;2023-08-30T10:52:06;4.93;;;2.47;;
44456;SDS011;30159;49.316;8.558;2023-08-30T10:54:38;1.80;;;1.70;;
44456;SDS011;30159;49.316;8.558;2023-08-30T10:57:04;1.80;;;1.70;;
44456;SDS011;30159;49.316;8.558;2023-08-30T10:59:31;3.10;;;2.87;;
44456;SDS011;30159;49.316;8.558;2023-08-30T11:02:00;1.83;;;1.73;;
44456;SDS011;30159;49.316;8.558;2023-08-30T11:04:28;1.87;;;1.77;;
44456;SDS011;30159;49.316;8.558;2023-08-30T11:06:55;2.30;;;2.20;;
44456;SDS011;30159;49.316;8.558;2023-08-30T11:09:24;1.70;;;1.60;;
44456;SDS011;30159;49.316;8.558;2023-08-30T11:11:51;1.70;;;1.60;;
44456;SDS011;30159;49.316;8.558;2023-08-30T11:14:18;1.70;;;1.60;;
44456;SDS011;30159;49.316;8.558;2023-08-30T11:16:45;2.77;;;2.23;;
44456;SDS011;30159;49.316;8.558;2023-08-30T11:19:11;1.97;;;1.80;;
44456;SDS011;30159;49.316;8.558;2023-08-30T11:21:39;2.00;;;1.90;;
44456;SDS011;30159;49.316;8.558;2023-08-30T11:24:07;1.90;;;1.80;;
44456;SDS011;30159;49.316;8.558;2023-08-30T11:26:36;1.97;;;1.87;;
44456;SDS011;30159;49.316;8.558;2023-08-30T11:29:06;1.50;;;1.40;;
44456;SDS011;30159;49.316;8.558;2023-08-30T11:31:32;1.80;;;1.70;;
44456;SDS011;30159;49.316;8.558;2023-08-30T11:34:00;1.63;;;1.40;;
44456;SDS011;30159;49.316;8.558;2023-08-30T11:36:27;1.43;;;1.30;;
44456;SDS011;30159;49.316;8.558;2023-08-30T11:38:55;1.57;;;1.47;;
44456;SDS011;30159;49.316;8.558;2023-08-30T11:41:22;1.90;;;1.80;;
44456;SDS011;30159;49.316;8.558;2023-08-30T11:43:50;1.40;;;1.30;;
44456;SDS011;30159;49.316;8.558;2023-08-30T11:46:18;1.50;;;1.40;;
44456;SDS011;30159;49.316;8.558;2023-08-30T11:48:45;1.83;;;1.43;;
44456;SDS011;30159;49.316;8.558;2023-08-30T11:51:13;1.57;;;1.47;;
44456;SDS011;30159;49.316;8.558;2023-08-30T11:53:40;1.70;;;1.60;;
44456;SDS011;30159;49.316;8.558;2023-08-30T11:56:07;1.80;;;1.70;;
44456;SDS011;30159;49.316;8.558;2023-08-30T11:58:34;1.90;;;1.80;;
44456;SDS011;30159;49.316;8.558;2023-08-30T12:01:03;1.60;;;1.50;;
44456;SDS011;30159;49.316;8.558;2023-08-30T12:03:31;2.73;;;1.80;;
44456;SDS011;30159;49.316;8.558;2023-08-30T12:05:58;2.37;;;1.50;;
44456;SDS011;30159;49.316;8.558;2023-08-30T12:08:26;1.73;;;1.63;;
44456;SDS011;30159;49.316;8.558;2023-08-30T12:10:55;1.40;;;1.30;;
44456;SDS011;30159;49.316;8.558;2023-08-30T12:13:22;1.30;;;1.20;;
44456;SDS011;30159;49.316;8.558;2023-08-30T12:15:49;1.30;;;1.20;;
44456;SDS011;30159;49.316;8.558;2023-08-30T12:18:17;1.50;;;1.40;;
44456;SDS011;30159;49.316;8.558;2023-08-30T12:20:53;1.67;;;1.57;;
44456;SDS011;30159;49.316;8.558;2023-08-30T12:23:21;1.50;;;1.40;;
44456;SDS011;30159;49.316;8.558;2023-08-30T12:32:32;1.20;;;1.10;;
44456;SDS011;30159;49.316;8.558;2023-08-30T12:35:00;2.10;;;1.47;;
44456;SDS011;30159;49.316;8.558;2023-08-30T12:37:28;1.40;;;1.30;;
44456;SDS011;30159;49.316;8.558;2023-08-30T12:39:54;1.40;;;1.30;;
44456;SDS011;30159;49.316;8.558;2023-08-30T12:42:21;1.17;;;1.07;;
44456;SDS011;30159;49.316;8.558;2023-08-30T12:44:47;1.30;;;1.20;;
44456;SDS011;30159;49.316;8.558;2023-08-30T12:47:14;1.33;;;1.23;;
44456;SDS011;30159;49.316;8.558;2023-08-30T12:49:41;1.20;;;1.10;;
44456;SDS011;30159;49.316;8.558;2023-08-30T12:52:08;1.20;;;1.10;;
44456;SDS011;30159;49.316;8.558;2023-08-30T12:54:35;6.10;;;3.03;;
44456;SDS011;30159;49.316;8.558;2023-08-30T12:57:02;1.80;;;1.20;;
44456;SDS011;30159;49.316;8.558;2023-08-30T12:59:29;1.30;;;1.20;;
44456;SDS011;30159;49.316;8.558;2023-08-30T13:01:55;1.30;;;1.20;;
44456;SDS011;30159;49.316;8.558;2023-08-30T13:04:22;1.63;;;1.10;;
44456;SDS011;30159;49.316;8.558;2023-08-30T13:06:48;1.37;;;1.27;;
44456;SDS011;30159;49.316;8.558;2023-08-30T13:09:17;1.53;;;1.20;;
44456;SDS011;30159;49.316;8.558;2023-08-30T13:11:44;1.17;;;1.07;;
44456;SDS011;30159;49.316;8.558;2023-08-30T13:14:10;1.30;;;1.20;;
44456;SDS011;30159;49.316;8.558;2023-08-30T13:16:37;1.30;;;1.20;;
44456;SDS011;30159;49.316;8.558;2023-08-30T13:19:03;1.53;;;1.43;;
44456;SDS011;30159;49.316;8.558;2023-08-30T13:21:30;2.00;;;1.20;;
44456;SDS011;30159;49.316;8.558;2023-08-30T13:23:57;2.10;;;1.30;;
44456;SDS011;30159;49.316;8.558;2023-08-30T13:26:25;1.20;;;1.10;;
44456;SDS011;30159;49.316;8.558;2023-08-30T13:28:52;1.20;;;1.10;;
44456;SDS011;30159;49.316;8.558;2023-08-30T13:31:18;1.33;;;1.20;;
44456;SDS011;30159;49.316;8.558;2023-08-30T13:33:45;1.20;;;1.10;;
44456;SDS011;30159;49.316;8.558;2023-08-30T13:36:12;1.30;;;1.20;;
44456;SDS011;30159;49.316;8.558;2023-08-30T13:38:38;1.30;;;1.20;;
44456;SDS011;30159;49.316;8.558;2023-08-30T13:41:05;1.20;;;1.10;;
44456;SDS011;30159;49.316;8.558;2023-08-30T13:43:34;1.20;;;1.10;;
44456;SDS011;30159;49.316;8.558;2023-08-30T13:46:00;1.17;;;1.07;;
44456;SDS011;30159;49.316;8.558;2023-08-30T13:48:27;1.10;;;1.00;;
44456;SDS011;30159;49.316;8.558;2023-08-30T13:50:54;1.20;;;1.10;;
44456;SDS011;30159;49.316;8.558;2023-08-30T13:53:20;1.20;;;1.10;;
44456;SDS011;30159;49.316;8.558;2023-08-30T13:55:47;1.10;;;1.00;;
44456;SDS011;30159;49.316;8.558;2023-08-30T13:58:14;1.40;;;1.30;;
44456;SDS011;30159;49.316;8.558;2023-08-30T14:00:43;1.10;;;0.93;;
44456;SDS011;30159;49.316;8.558;2023-08-30T14:03:10;1.10;;;1.00;;
44456;SDS011;30159;49.316;8.558;2023-08-30T14:05:37;1.80;;;1.10;;
44456;SDS011;30159;49.316;8.558;2023-08-30T14:08:05;1.00;;;0.90;;
44456;SDS011;30159;49.316;8.558;2023-08-30T14:10:32;1.20;;;1.10;;
44456;SDS011;30159;49.316;8.558;2023-08-30T14:12:59;1.00;;;0.90;;
44456;SDS011;30159;49.316;8.558;2023-08-30T14:15:25;0.93;;;0.90;;
44456;SDS011;30159;49.316;8.558;2023-08-30T14:17:53;1.67;;;1.10;;
44456;SDS011;30159;49.316;8.558;2023-08-30T14:20:20;1.17;;;1.07;;
44456;SDS011;30159;49.316;8.558;2023-08-30T14:22:46;1.30;;;1.20;;
44456;SDS011;30159;49.316;8.558;2023-08-30T14:25:13;1.23;;;1.13;;
44456;SDS011;30159;49.316;8.558;2023-08-30T14:27:40;1.20;;;1.10;;
44456;SDS011;30159;49.316;8.558;2023-08-30T14:30:07;1.03;;;0.93;;
44456;SDS011;30159;49.316;8.558;2023-08-30T14:32:34;1.10;;;1.00;;
44456;SDS011;30159;49.316;8.558;2023-08-30T14:35:03;1.00;;;0.90;;
44456;SDS011;30159;49.316;8.558;2023-08-30T14:37:30;1.00;;;0.90;;
44456;SDS011;30159;49.316;8.558;2023-08-30T14:39:59;0.97;;;0.83;;
44456;SDS011;30159;49.316;8.558;2023-08-30T14:42:26;1.00;;;0.90;;
44456;SDS011;30159;49.316;8.558;2023-08-30T14:44:52;1.43;;;0.90;;
44456;SDS011;30159;49.316;8.558;2023-08-30T14:47:19;0.90;;;0.80;;
44456;SDS011;30159;49.316;8.558;2023-08-30T14:49:46;1.07;;;0.97;;
44456;SDS011;30159;49.316;8.558;2023-08-30T14:52:14;0.97;;;0.77;;
44456;SDS011;30159;49.316;8.558;2023-08-30T14:54:41;1.00;;;0.90;;
44456;SDS011;30159;49.316;8.558;2023-08-30T14:57:08;0.80;;;0.70;;
44456;SDS011;30159;49.316;8.558;2023-08-30T14:59:35;1.00;;;0.87;;